Time;durP1;ratioP1;P1;durP2;ratioP2;P2;SDS_P1;SDS_P2;PMS_P1;PMS_P2;Temp;Humidity;BMP_temperature;BMP_pressure;BME280_temperature;BME280_humidity;BME280_pressure;Samples;Min_cycle;Max_cycle;Signal;HPM_P1;HPM_P2
2021/08/12 00:00:45;;;;;;;6.35;4.93;;;17.60;99.90;;;;;;5052343;28;20024;-66
2021/08/12 00:03:11;;;;;;;7.07;5.22;;;17.50;99.90;;;;;;5051572;28;20024;-66
2021/08/12 00:05:37;;;;;;;7.43;5.30;;;17.50;99.90;;;;;;5051670;28;20107;-67
2021/08/12 00:08:02;;;;;;;6.45;5.45;;;17.50;99.90;;;;;;5031343;28;20047;-67
2021/08/12 00:10:28;;;;;;;7.93;5.25;;;17.40;99.90;;;;;;5046037;28;20063;-67
2021/08/12 00:12:54;;;;;;;9.77;5.68;;;17.40;99.90;;;;;;5034273;28;20041;-67
2021/08/12 00:15:20;;;;;;;6.38;5.05;;;17.40;99.90;;;;;;5031495;28;20042;-66
2021/08/12 00:17:45;;;;;;;8.63;6.57;;;17.40;99.90;;;;;;5038142;28;20025;-66
2021/08/12 00:20:11;;;;;;;8.48;6.10;;;17.40;99.90;;;;;;5048680;28;20016;-67
2021/08/12 00:22:37;;;;;;;11.25;6.82;;;17.40;99.90;;;;;;5032167;28;20032;-66
2021/08/12 00:25:05;;;;;;;6.88;5.97;;;17.40;99.90;;;;;;5046893;28;20379;-66
2021/08/12 00:27:31;;;;;;;7.18;5.75;;;17.40;99.90;;;;;;5035898;28;20078;-66
2021/08/12 00:29:57;;;;;;;5.88;5.28;;;17.40;99.90;;;;;;5050223;28;20021;-67
2021/08/12 00:32:22;;;;;;;6.65;5.57;;;17.30;99.90;;;;;;5050490;28;20101;-66
2021/08/12 00:34:48;;;;;;;8.15;5.35;;;17.30;99.90;;;;;;5046934;28;20382;-66
2021/08/12 00:37:13;;;;;;;9.18;5.65;;;17.20;99.90;;;;;;5030842;28;20025;-67
2021/08/12 00:39:39;;;;;;;7.43;5.63;;;17.10;99.90;;;;;;5047894;28;20049;-66
2021/08/12 00:42:05;;;;;;;6.65;5.40;;;17.10;99.90;;;;;;5034960;28;20096;-66
2021/08/12 00:44:31;;;;;;;8.05;5.70;;;17.10;99.90;;;;;;5051179;28;20510;-66
2021/08/12 00:46:57;;;;;;;7.50;5.90;;;17.10;99.90;;;;;;5049633;28;20037;-67
2021/08/12 00:49:22;;;;;;;8.43;6.40;;;17.00;99.90;;;;;;5049913;28;20032;-66
2021/08/12 00:51:48;;;;;;;8.25;6.10;;;17.00;99.90;;;;;;5050511;28;20025;-66
2021/08/12 00:54:14;;;;;;;9.20;5.70;;;16.90;99.90;;;;;;5047356;28;20037;-67
2021/08/12 00:56:40;;;;;;;8.85;6.07;;;16.90;99.90;;;;;;5037026;28;20059;-66
2021/08/12 00:59:07;;;;;;;7.00;5.15;;;16.90;99.90;;;;;;5050346;28;20040;-66
2021/08/12 01:01:32;;;;;;;7.50;5.43;;;16.90;99.90;;;;;;5032812;28;20052;-66
2021/08/12 01:03:59;;;;;;;7.65;5.70;;;16.80;99.90;;;;;;5049844;28;20025;-66
2021/08/12 01:06:30;;;;;;;10.15;5.82;;;16.80;99.90;;;;;;5050862;28;20533;-66
2021/08/12 01:09:24;;;;;;;8.57;6.05;;;16.80;99.90;;;;;;5041575;28;20372;-66
2021/08/12 01:12:04;;;;;;;9.13;6.15;;;16.80;99.90;;;;;;5049051;28;20041;-66
2021/08/12 01:14:40;;;;;;;7.10;5.80;;;16.80;99.90;;;;;;5050928;28;20033;-67
2021/08/12 01:17:09;;;;;;;9.05;6.95;;;16.70;99.90;;;;;;5048420;28;20025;-66
2021/08/12 01:19:56;;;;;;;7.53;6.03;;;16.70;99.90;;;;;;5037475;28;20091;-67
2021/08/12 01:22:23;;;;;;;5.93;5.28;;;16.70;99.90;;;;;;5033638;28;20029;-66
2021/08/12 01:24:56;;;;;;;7.93;6.38;;;16.60;99.90;;;;;;5031748;28;20159;-67
2021/08/12 01:27:29;;;;;;;7.50;6.43;;;16.60;99.90;;;;;;5052761;28;20017;-66
2021/08/12 01:30:10;;;;;;;10.52;7.18;;;16.60;99.90;;;;;;5054296;28;20056;-67
2021/08/12 01:32:56;;;;;;;11.80;6.75;;;16.70;99.90;;;;;;5054247;28;20036;-66
2021/08/12 01:35:23;;;;;;;7.57;5.60;;;16.70;99.90;;;;;;5054382;28;20474;-66
2021/08/12 01:37:57;;;;;;;8.82;6.47;;;16.70;99.90;;;;;;5044259;28;20025;-67
2021/08/12 01:40:27;;;;;;;8.70;6.55;;;16.70;99.90;;;;;;5050089;28;20532;-66
2021/08/12 01:42:55;;;;;;;8.18;6.10;;;16.70;99.90;;;;;;5054197;28;20455;-67
2021/08/12 01:45:20;;;;;;;10.25;6.50;;;16.70;99.90;;;;;;5054266;28;20052;-67
2021/08/12 01:47:48;;;;;;;9.00;6.25;;;16.70;99.90;;;;;;5054068;28;20386;-66
2021/08/12 01:50:16;;;;;;;7.93;5.85;;;16.70;99.90;;;;;;5041036;28;20025;-67
2021/08/12 01:52:45;;;;;;;10.50;6.13;;;16.60;99.90;;;;;;5050858;28;20390;-66
2021/08/12 01:55:12;;;;;;;12.40;6.70;;;16.60;99.90;;;;;;5026317;28;20132;-67
2021/08/12 01:57:40;;;;;;;10.38;6.95;;;16.60;99.90;;;;;;5034761;28;20034;-66
2021/08/12 02:00:07;;;;;;;10.93;6.65;;;16.60;99.90;;;;;;5052148;28;20443;-66
2021/08/12 02:02:35;;;;;;;7.60;6.75;;;16.50;99.90;;;;;;5054080;28;20463;-67
2021/08/12 02:05:01;;;;;;;8.07;6.32;;;16.50;99.90;;;;;;5053300;28;20091;-66
2021/08/12 02:07:27;;;;;;;9.25;6.32;;;16.50;99.90;;;;;;5050527;28;20028;-67
2021/08/12 02:09:52;;;;;;;8.00;6.05;;;16.50;99.90;;;;;;5039259;28;20150;-66
2021/08/12 02:12:18;;;;;;;8.57;6.88;;;16.40;99.90;;;;;;5052994;28;20027;-67
2021/08/12 02:14:44;;;;;;;10.50;6.50;;;16.40;99.90;;;;;;5053333;28;20355;-66
2021/08/12 02:17:10;;;;;;;8.50;6.93;;;16.40;99.90;;;;;;5052710;28;20017;-67
2021/08/12 02:19:36;;;;;;;9.82;7.45;;;16.40;99.90;;;;;;5053152;28;20024;-67
2021/08/12 02:22:15;;;;;;;10.25;7.65;;;16.40;99.90;;;;;;5036871;28;20386;-66
2021/08/12 02:24:45;;;;;;;11.45;7.63;;;16.40;99.90;;;;;;5053367;28;20052;-66
2021/08/12 02:27:17;;;;;;;13.68;8.25;;;16.40;99.90;;;;;;5052923;28;20074;-66
2021/08/12 02:29:45;;;;;;;9.50;6.90;;;16.30;99.90;;;;;;5053343;28;20025;-66
2021/08/12 02:32:13;;;;;;;11.82;6.45;;;16.30;99.90;;;;;;5052612;28;20048;-67
2021/08/12 02:34:42;;;;;;;8.90;6.05;;;16.30;99.90;;;;;;5047616;28;20017;-67
2021/08/12 02:37:13;;;;;;;10.70;6.47;;;16.30;99.90;;;;;;5033736;28;20028;-66
2021/08/12 02:39:41;;;;;;;9.27;6.68;;;16.30;99.90;;;;;;5033186;28;20038;-66
2021/08/12 02:42:09;;;;;;;8.82;6.78;;;16.30;99.90;;;;;;5033208;28;20033;-66
2021/08/12 02:44:37;;;;;;;8.55;6.88;;;16.30;99.90;;;;;;5033900;28;20037;-66
2021/08/12 02:47:05;;;;;;;11.10;7.15;;;16.30;99.90;;;;;;5033007;28;20402;-66
2021/08/12 02:49:34;;;;;;;11.77;6.97;;;16.40;99.90;;;;;;5042240;28;20494;-66
2021/08/12 02:52:02;;;;;;;8.10;6.75;;;16.40;99.90;;;;;;5046182;28;20025;-67
2021/08/12 02:54:28;;;;;;;7.90;7.00;;;16.40;99.90;;;;;;5053342;28;20032;-66
2021/08/12 02:56:55;;;;;;;9.23;6.82;;;16.40;99.90;;;;;;5049278;28;20041;-66
2021/08/12 02:59:22;;;;;;;7.53;6.20;;;16.40;99.90;;;;;;5034339;28;20120;-67
2021/08/12 03:01:49;;;;;;;8.50;6.95;;;16.40;99.90;;;;;;5034189;28;20029;-66
2021/08/12 03:04:17;;;;;;;9.60;7.03;;;16.40;99.90;;;;;;5045256;28;20037;-66
2021/08/12 03:06:43;;;;;;;9.27;7.35;;;16.30;99.90;;;;;;5037926;28;20037;-66
2021/08/12 03:09:10;;;;;;;11.15;7.68;;;16.30;99.90;;;;;;5034799;28;20025;-67
2021/08/12 03:11:36;;;;;;;9.77;7.60;;;16.30;99.90;;;;;;5053440;28;20029;-67
2021/08/12 03:14:02;;;;;;;13.00;8.05;;;16.30;99.90;;;;;;5052229;28;20031;-67
2021/08/12 03:16:29;;;;;;;12.85;7.90;;;16.30;99.90;;;;;;5052597;28;20108;-66
2021/08/12 03:18:55;;;;;;;10.63;8.00;;;16.20;99.90;;;;;;5038134;28;20028;-66
2021/08/12 03:21:21;;;;;;;9.23;7.03;;;16.20;99.90;;;;;;5033732;28;20368;-66
2021/08/12 03:23:47;;;;;;;9.68;7.30;;;16.20;99.90;;;;;;5034529;28;20021;-66
2021/08/12 03:26:13;;;;;;;9.30;7.20;;;16.10;99.90;;;;;;5032503;28;20029;-67
2021/08/12 03:28:39;;;;;;;8.45;7.03;;;16.10;99.90;;;;;;5047690;28;20025;-66
2021/08/12 03:31:04;;;;;;;10.57;6.10;;;16.10;99.90;;;;;;5051685;28;20378;-66
2021/08/12 03:33:31;;;;;;;8.48;6.78;;;16.00;99.90;;;;;;5052638;28;20033;-66
2021/08/12 03:35:57;;;;;;;11.18;7.20;;;16.00;99.90;;;;;;5036029;28;20126;-67
2021/08/12 03:38:23;;;;;;;9.85;7.53;;;16.00;99.90;;;;;;5031494;28;20033;-66
2021/08/12 03:40:50;;;;;;;9.50;7.28;;;15.90;99.90;;;;;;5033171;28;20108;-66
2021/08/12 03:43:16;;;;;;;9.98;6.97;;;15.90;99.90;;;;;;5032117;28;20037;-66
2021/08/12 03:45:43;;;;;;;8.65;6.28;;;15.90;99.90;;;;;;5036571;28;20367;-66
2021/08/12 03:48:09;;;;;;;9.15;7.32;;;15.90;99.90;;;;;;5051993;28;20375;-66
2021/08/12 03:50:35;;;;;;;8.60;6.82;;;15.90;99.90;;;;;;5035870;28;20033;-66
2021/08/12 03:53:01;;;;;;;12.07;7.75;;;15.90;99.90;;;;;;5034587;28;20136;-66
2021/08/12 03:55:27;;;;;;;10.52;7.80;;;15.90;99.90;;;;;;5052141;28;20526;-66
2021/08/12 03:57:52;;;;;;;13.63;8.98;;;15.90;99.90;;;;;;5044535;28;20025;-66
2021/08/12 04:00:18;;;;;;;9.50;7.63;;;15.90;99.90;;;;;;5032003;28;20022;-66
2021/08/12 04:02:44;;;;;;;11.68;7.15;;;15.90;99.90;;;;;;5032801;28;20104;-66
2021/08/12 04:05:10;;;;;;;11.45;7.20;;;15.90;99.90;;;;;;5046452;28;20592;-66
2021/08/12 04:07:36;;;;;;;9.68;7.10;;;15.90;99.90;;;;;;5032448;28;20391;-66
2021/08/12 04:10:04;;;;;;;8.77;6.47;;;15.90;99.90;;;;;;5041493;28;20033;-66
2021/08/12 04:12:31;;;;;;;8.88;6.78;;;15.90;99.90;;;;;;5051286;28;20387;-66
2021/08/12 04:14:56;;;;;;;8.18;7.22;;;15.90;99.90;;;;;;5050676;28;20041;-66
2021/08/12 04:17:22;;;;;;;11.85;7.57;;;15.90;99.90;;;;;;5046237;28;20493;-66
2021/08/12 04:19:47;;;;;;;8.70;7.00;;;15.90;99.90;;;;;;5038354;28;20518;-66
2021/08/12 04:22:13;;;;;;;11.60;7.53;;;15.90;99.90;;;;;;5048280;28;20047;-66
2021/08/12 04:24:39;;;;;;;9.80;7.53;;;15.90;99.90;;;;;;5031892;28;20025;-66
2021/08/12 04:27:04;;;;;;;9.80;6.75;;;15.90;99.90;;;;;;5047981;28;20021;-66
2021/08/12 04:29:30;;;;;;;11.65;7.13;;;15.90;99.90;;;;;;5050859;28;20076;-66
2021/08/12 04:31:56;;;;;;;10.20;7.22;;;15.90;99.90;;;;;;5045828;28;20493;-66
2021/08/12 04:34:22;;;;;;;9.50;7.55;;;16.00;99.90;;;;;;5031550;28;20036;-66
2021/08/12 04:36:48;;;;;;;8.68;7.28;;;16.00;99.90;;;;;;5051044;28;20067;-66
2021/08/12 04:39:15;;;;;;;11.15;6.90;;;16.00;99.90;;;;;;5049478;28;20057;-66
2021/08/12 04:41:40;;;;;;;9.93;6.70;;;16.00;99.90;;;;;;5042914;28;20321;-67
2021/08/12 04:44:06;;;;;;;7.93;6.55;;;16.10;99.90;;;;;;5031195;28;20463;-66
2021/08/12 04:46:32;;;;;;;6.72;5.95;;;16.10;99.90;;;;;;5032514;28;20091;-67
2021/08/12 04:48:57;;;;;;;10.80;6.82;;;16.10;99.90;;;;;;5043995;28;20111;-76
2021/08/12 04:51:24;;;;;;;8.43;7.25;;;16.20;99.90;;;;;;5050534;28;20039;-72
2021/08/12 04:53:49;;;;;;;7.93;6.70;;;16.30;99.90;;;;;;5050256;28;20033;-72
2021/08/12 04:56:15;;;;;;;12.32;7.47;;;16.30;99.90;;;;;;5050313;28;20535;-74
2021/08/12 04:58:41;;;;;;;9.98;6.65;;;16.40;99.90;;;;;;5050789;28;20087;-77
2021/08/12 05:01:06;;;;;;;8.15;6.53;;;16.50;99.90;;;;;;5049570;28;20029;-78
2021/08/12 05:03:32;;;;;;;9.07;6.78;;;16.60;99.90;;;;;;5057135;28;20032;-73
2021/08/12 05:06:05;;;;;;;10.05;6.78;;;16.60;99.90;;;;;;5048854;28;20035;-79
2021/08/12 05:08:31;;;;;;;9.75;6.25;;;16.70;99.90;;;;;;5045128;28;20386;-75
2021/08/12 05:10:57;;;;;;;12.13;7.55;;;16.80;99.90;;;;;;5052808;28;20036;-77
2021/08/12 05:13:23;;;;;;;9.68;7.03;;;17.00;99.90;;;;;;5055443;28;20029;-73
2021/08/12 05:15:49;;;;;;;8.75;7.18;;;17.10;99.90;;;;;;5042249;28;20036;-79
2021/08/12 05:18:15;;;;;;;9.60;7.35;;;17.20;99.90;;;;;;5040824;28;20056;-71
2021/08/12 05:20:40;;;;;;;9.40;7.30;;;17.20;99.90;;;;;;5045791;28;20033;-77
2021/08/12 05:23:06;;;;;;;11.10;6.95;;;17.20;99.90;;;;;;5037131;28;20482;-76
2021/08/12 05:25:32;;;;;;;8.93;7.05;;;17.30;99.90;;;;;;5038114;28;20037;-76
2021/08/12 05:27:57;;;;;;;10.75;7.65;;;17.30;99.90;;;;;;5038627;28;20029;-77
2021/08/12 05:30:23;;;;;;;7.97;6.72;;;17.30;99.90;;;;;;5037280;28;20854;-77
2021/08/12 05:32:50;;;;;;;8.40;6.13;;;17.20;99.90;;;;;;5037949;28;20030;-76
2021/08/12 05:35:15;;;;;;;7.28;6.47;;;17.20;99.90;;;;;;5036716;28;20483;-69
2021/08/12 05:37:41;;;;;;;9.23;6.55;;;17.20;99.90;;;;;;5037833;28;20031;-69
2021/08/12 05:40:07;;;;;;;8.70;6.63;;;17.30;99.90;;;;;;5038026;28;20557;-70
2021/08/12 05:42:33;;;;;;;9.57;6.63;;;17.30;99.90;;;;;;5042571;28;20021;-70
2021/08/12 05:44:59;;;;;;;9.23;7.20;;;17.40;99.90;;;;;;5057343;28;20021;-69
2021/08/12 05:47:24;;;;;;;9.52;7.25;;;17.50;99.90;;;;;;5054703;28;20047;-68
2021/08/12 05:49:51;;;;;;;9.30;7.75;;;17.60;99.90;;;;;;5057361;28;20044;-71
2021/08/12 05:52:17;;;;;;;9.65;7.50;;;17.70;99.90;;;;;;5041008;28;20437;-68
2021/08/12 05:54:42;;;;;;;13.23;7.47;;;17.90;99.90;;;;;;5057317;28;20424;-68
2021/08/12 05:57:08;;;;;;;10.20;7.53;;;18.10;99.90;;;;;;5048070;28;20034;-67
2021/08/12 05:59:34;;;;;;;14.32;7.15;;;18.30;99.90;;;;;;5037680;28;20056;-67
2021/08/12 06:01:59;;;;;;;10.73;7.70;;;18.50;99.90;;;;;;5038091;28;20025;-68
2021/08/12 06:04:25;;;;;;;9.50;7.40;;;18.60;99.90;;;;;;5056140;28;20029;-67
2021/08/12 06:06:51;;;;;;;12.57;8.15;;;18.70;99.90;;;;;;5057213;28;20035;-68
2021/08/12 06:09:16;;;;;;;10.20;7.50;;;18.70;99.90;;;;;;5050383;28;20029;-67
2021/08/12 06:11:42;;;;;;;11.77;7.68;;;18.80;99.90;;;;;;5050938;28;20410;-72
2021/08/12 06:14:07;;;;;;;9.55;7.35;;;18.80;99.90;;;;;;5047441;28;20029;-67
2021/08/12 06:16:33;;;;;;;12.00;7.72;;;18.70;99.90;;;;;;5051620;28;20033;-67
2021/08/12 06:18:59;;;;;;;10.77;8.02;;;18.70;99.90;;;;;;5034196;28;20029;-67
2021/08/12 06:21:25;;;;;;;10.60;8.07;;;18.70;99.90;;;;;;5033012;28;20029;-67
2021/08/12 06:23:51;;;;;;;9.23;7.63;;;18.70;99.90;;;;;;5034208;28;20044;-69
2021/08/12 06:26:17;;;;;;;12.45;8.00;;;18.70;99.90;;;;;;5045901;28;20037;-69
2021/08/12 06:28:45;;;;;;;13.45;8.15;;;18.70;99.90;;;;;;5042850;28;20040;-68
2021/08/12 06:31:10;;;;;;;13.20;7.72;;;18.90;99.90;;;;;;5025683;28;20021;-69
2021/08/12 06:33:36;;;;;;;9.10;7.35;;;18.90;99.90;;;;;;5034792;28;20037;-69
2021/08/12 06:36:02;;;;;;;15.38;7.68;;;19.00;99.90;;;;;;5047764;28;20029;-69
2021/08/12 06:38:28;;;;;;;12.00;7.70;;;19.00;99.90;;;;;;5051756;28;20390;-69
2021/08/12 06:40:54;;;;;;;11.57;8.15;;;19.10;99.90;;;;;;5046943;28;20095;-68
2021/08/12 06:43:19;;;;;;;10.32;8.10;;;19.20;99.90;;;;;;5052700;28;20452;-69
2021/08/12 06:45:45;;;;;;;10.52;7.50;;;19.20;99.90;;;;;;5053018;28;20029;-69
2021/08/12 06:48:11;;;;;;;14.07;8.07;;;19.30;99.90;;;;;;5052623;28;20467;-68
2021/08/12 06:50:37;;;;;;;10.65;7.53;;;19.40;99.90;;;;;;5053467;28;20029;-69
2021/08/12 06:53:03;;;;;;;11.02;7.80;;;19.60;99.90;;;;;;5050978;28;20478;-69
2021/08/12 06:55:30;;;;;;;10.55;7.35;;;19.80;99.90;;;;;;5032747;28;20048;-77
2021/08/12 06:57:56;;;;;;;10.75;7.63;;;20.00;99.90;;;;;;5033536;28;20382;-75
2021/08/12 07:00:22;;;;;;;11.05;7.50;;;20.20;99.90;;;;;;5033429;28;20526;-76
2021/08/12 07:02:48;;;;;;;9.27;6.35;;;20.40;99.90;;;;;;5032681;28;20121;-76
2021/08/12 07:05:14;;;;;;;8.88;6.78;;;20.60;99.90;;;;;;5049712;28;20043;-75
2021/08/12 07:07:40;;;;;;;11.90;6.63;;;20.80;99.90;;;;;;5049293;28;20104;-76
2021/08/12 07:10:07;;;;;;;9.60;6.20;;;21.00;99.90;;;;;;5040043;28;20150;-74
2021/08/12 07:12:32;;;;;;;10.15;6.60;;;21.10;99.90;;;;;;5052093;28;20033;-76
2021/08/12 07:14:58;;;;;;;12.48;7.10;;;21.10;99.90;;;;;;5042184;28;20104;-76
2021/08/12 07:17:25;;;;;;;11.18;6.63;;;21.10;99.90;;;;;;5039655;28;20045;-76
2021/08/12 07:19:51;;;;;;;9.25;7.07;;;21.10;99.90;;;;;;5052409;28;20037;-76
2021/08/12 07:22:18;;;;;;;10.70;6.93;;;21.20;99.90;;;;;;5050246;28;20032;-76
2021/08/12 07:24:44;;;;;;;11.57;7.57;;;21.20;99.90;;;;;;5051806;28;20033;-75
2021/08/12 07:27:10;;;;;;;10.65;7.55;;;21.30;99.90;;;;;;5051640;28;20469;-75
2021/08/12 07:29:35;;;;;;;9.90;6.90;;;21.40;99.90;;;;;;5044794;28;20025;-76
2021/08/12 07:32:03;;;;;;;9.38;6.70;;;21.50;99.90;;;;;;5035592;28;20036;-76
2021/08/12 07:34:28;;;;;;;16.83;7.00;;;21.60;99.90;;;;;;5051575;28;20029;-76
2021/08/12 07:36:54;;;;;;;9.55;6.53;;;21.70;99.90;;;;;;5044061;28;20082;-75
2021/08/12 07:39:20;;;;;;;10.95;7.35;;;21.80;99.90;;;;;;5031651;28;20047;-76
2021/08/12 07:41:45;;;;;;;11.07;7.20;;;22.00;99.90;;;;;;5032801;28;20033;-76
2021/08/12 07:44:13;;;;;;;11.50;6.93;;;22.10;99.90;;;;;;5050527;28;20702;-75
2021/08/12 07:46:40;;;;;;;11.95;7.72;;;22.20;99.90;;;;;;5052075;28;20025;-76
2021/08/12 07:49:05;;;;;;;15.82;7.70;;;22.40;99.90;;;;;;5051597;28;20492;-76
2021/08/12 07:51:31;;;;;;;10.30;6.93;;;22.50;99.90;;;;;;5039523;28;20065;-76
2021/08/12 07:53:57;;;;;;;12.07;7.18;;;22.70;99.90;;;;;;5031486;28;20116;-75
2021/08/12 07:56:23;;;;;;;10.20;7.15;;;22.80;99.90;;;;;;5032264;28;20030;-76
2021/08/12 07:58:49;;;;;;;15.23;8.93;;;22.80;99.90;;;;;;5042258;28;20060;-76
2021/08/12 08:01:18;;;;;;;12.95;7.05;;;22.90;99.90;;;;;;5041498;28;20036;-75
2021/08/12 08:03:45;;;;;;;9.20;7.00;;;23.00;99.90;;;;;;5051886;28;20028;-76
2021/08/12 08:06:11;;;;;;;9.77;6.72;;;23.10;99.90;;;;;;5038218;28;20065;-74
2021/08/12 08:08:37;;;;;;;15.32;7.38;;;23.20;99.70;;;;;;5031905;28;20080;-76
2021/08/12 08:11:03;;;;;;;10.85;6.93;;;23.30;99.30;;;;;;5032495;28;20399;-76
2021/08/12 08:13:29;;;;;;;10.05;7.05;;;23.40;99.10;;;;;;5031336;28;20164;-76
2021/08/12 08:15:55;;;;;;;11.48;7.38;;;23.50;98.40;;;;;;5042263;28;20065;-75
2021/08/12 08:18:21;;;;;;;11.45;6.65;;;23.60;99.20;;;;;;5050649;28;20064;-76
2021/08/12 08:20:46;;;;;;;11.35;7.93;;;23.80;98.20;;;;;;5036292;28;20025;-76
2021/08/12 08:23:12;;;;;;;18.13;7.60;;;23.90;97.90;;;;;;5031200;28;20434;-74
2021/08/12 08:25:39;;;;;;;10.57;6.90;;;24.00;97.50;;;;;;5036130;28;20029;-76
2021/08/12 08:28:05;;;;;;;10.93;6.47;;;24.10;97.80;;;;;;5051271;28;20021;-75
2021/08/12 08:30:34;;;;;;;11.90;6.50;;;24.30;97.10;;;;;;5047181;28;20029;-75
2021/08/12 08:33:00;;;;;;;9.82;5.75;;;24.40;96.50;;;;;;5050823;28;20017;-76
2021/08/12 08:35:28;;;;;;;9.18;6.30;;;24.50;96.40;;;;;;5046329;28;20116;-76
2021/08/12 08:37:54;;;;;;;10.10;6.50;;;24.70;95.50;;;;;;5043057;28;20033;-77
2021/08/12 08:40:20;;;;;;;8.90;5.70;;;24.80;95.00;;;;;;5043231;28;20483;-76
2021/08/12 08:42:46;;;;;;;14.35;6.22;;;25.00;94.40;;;;;;5044140;28;20430;-77
2021/08/12 08:45:15;;;;;;;8.90;6.05;;;25.20;94.00;;;;;;5031424;28;20026;-74
2021/08/12 08:47:41;;;;;;;10.10;6.07;;;25.40;92.80;;;;;;5032805;28;20056;-76
2021/08/12 08:50:09;;;;;;;7.53;6.20;;;25.60;92.20;;;;;;5036453;28;20477;-76
2021/08/12 08:52:36;;;;;;;8.35;5.30;;;25.60;92.30;;;;;;5034596;28;20042;-75
2021/08/12 08:55:02;;;;;;;9.70;5.47;;;25.60;91.60;;;;;;5023671;28;20049;-79
2021/08/12 08:57:29;;;;;;;8.02;5.60;;;25.60;91.30;;;;;;5036829;28;20071;-67
2021/08/12 08:59:54;;;;;;;8.40;5.38;;;25.80;90.90;;;;;;5047748;28;20408;-67
2021/08/12 09:02:21;;;;;;;8.60;6.35;;;25.90;90.50;;;;;;5030549;28;20328;-67
2021/08/12 09:04:47;;;;;;;8.02;5.25;;;25.90;89.70;;;;;;5031670;28;20033;-66
2021/08/12 09:07:12;;;;;;;9.52;5.43;;;26.00;88.60;;;;;;5030528;28;20029;-66
2021/08/12 09:09:38;;;;;;;9.85;5.63;;;26.10;89.10;;;;;;5036391;28;20037;-66
2021/08/12 09:12:05;;;;;;;14.38;6.57;;;26.30;88.20;;;;;;5043404;28;20382;-67
2021/08/12 09:14:36;;;;;;;13.25;6.07;;;26.50;88.10;;;;;;5023084;28;20040;-67
2021/08/12 09:17:19;;;;;;;10.05;5.95;;;26.70;87.60;;;;;;5040140;28;20029;-66
2021/08/12 09:20:09;;;;;;;10.95;5.95;;;26.80;85.20;;;;;;5042195;28;20103;-67
2021/08/12 09:22:54;;;;;;;;;;;26.90;84.80;;;;;;5050513;28;20040;-66
2021/08/12 09:25:41;;;;;;;9.43;5.20;;;27.00;85.20;;;;;;5049897;28;19915;-66
2021/08/12 09:28:16;;;;;;;11.65;5.20;;;27.20;82.50;;;;;;5050858;28;20017;-67
2021/08/12 09:30:44;;;;;;;9.52;5.10;;;27.30;80.80;;;;;;5040844;28;20425;-66
2021/08/12 09:33:17;;;;;;;8.23;4.93;;;27.50;78.70;;;;;;5035960;28;20072;-66
2021/08/12 09:35:44;;;;;;;6.57;5.22;;;27.60;77.30;;;;;;5035326;28;20459;-66
2021/08/12 09:38:12;;;;;;;9.45;5.50;;;27.70;77.20;;;;;;5031029;28;20045;-66
2021/08/12 09:40:38;;;;;;;7.13;5.20;;;27.90;76.80;;;;;;5030762;28;20041;-66
2021/08/12 09:43:07;;;;;;;5.82;4.68;;;28.00;76.80;;;;;;5031117;28;20033;-66
2021/08/12 09:45:34;;;;;;;5.50;4.35;;;28.10;75.10;;;;;;5038627;28;20064;-66
2021/08/12 09:48:09;;;;;;;7.70;4.65;;;28.40;74.10;;;;;;5033917;28;20105;-66
2021/08/12 09:50:35;;;;;;;9.82;5.20;;;28.60;74.20;;;;;;5044015;28;20109;-66
2021/08/12 09:53:02;;;;;;;9.30;4.93;;;28.80;71.30;;;;;;5044124;28;20034;-67
2021/08/12 09:55:28;;;;;;;6.53;4.55;;;28.90;71.20;;;;;;5048949;28;20041;-66
2021/08/12 09:58:05;;;;;;;5.53;5.00;;;29.00;70.00;;;;;;5053645;28;20037;-67
2021/08/12 10:00:45;;;;;;;9.25;5.00;;;29.00;70.10;;;;;;5051122;28;20025;-66
2021/08/12 10:03:21;;;;;;;;;;;29.10;68.90;;;;;;5046856;28;20033;-67
2021/08/12 10:05:47;;;;;;;7.47;5.75;;;29.20;68.60;;;;;;5053480;28;19974;-71
2021/08/12 10:08:25;;;;;;;6.18;4.18;;;29.20;69.60;;;;;;5053744;28;20401;-67
2021/08/12 10:10:51;;;;;;;5.80;4.18;;;29.20;67.20;;;;;;5035910;28;20034;-67
2021/08/12 10:13:16;;;;;;;6.97;4.70;;;29.30;66.20;;;;;;5035037;28;20034;-66
2021/08/12 10:15:48;;;;;;;6.03;4.20;;;29.40;66.80;;;;;;5034660;28;20378;-67
2021/08/12 10:18:19;;;;;;;6.00;4.72;;;29.40;67.10;;;;;;5035245;28;20034;-66
2021/08/12 10:20:46;;;;;;;8.65;5.00;;;29.40;67.00;;;;;;5034648;28;20025;-67
2021/08/12 10:23:12;;;;;;;8.02;5.03;;;29.50;66.30;;;;;;5040998;28;20025;-66
2021/08/12 10:25:40;;;;;;;8.65;5.57;;;29.40;65.80;;;;;;5042078;28;20765;-66
2021/08/12 10:28:07;;;;;;;5.55;4.85;;;29.40;66.70;;;;;;5035181;28;20477;-66
2021/08/12 10:30:34;;;;;;;8.13;5.20;;;29.40;64.70;;;;;;5033172;28;20052;-66
2021/08/12 10:33:02;;;;;;;5.68;4.28;;;29.50;64.20;;;;;;5040987;28;20108;-73
2021/08/12 10:35:30;;;;;;;6.30;5.03;;;29.50;64.00;;;;;;5052530;28;20033;-71
2021/08/12 10:37:57;;;;;;;5.55;5.00;;;29.70;63.40;;;;;;5052706;28;20477;-74
2021/08/12 10:40:26;;;;;;;6.00;4.47;;;29.90;62.80;;;;;;5050690;28;20052;-72
2021/08/12 10:42:53;;;;;;;6.82;4.85;;;30.00;62.60;;;;;;5053341;28;20466;-72
2021/08/12 10:45:22;;;;;;;7.82;5.32;;;30.20;61.60;;;;;;5043690;28;20491;-70
2021/08/12 10:47:55;;;;;;;5.95;4.38;;;30.20;61.20;;;;;;5037898;28;20040;-69
2021/08/12 10:50:26;;;;;;;11.95;5.50;;;30.30;60.80;;;;;;5048064;28;20090;-70
2021/08/12 10:53:04;;;;;;;6.15;5.53;;;30.40;60.30;;;;;;5052898;28;20049;-70
2021/08/12 10:55:31;;;;;;;6.70;5.30;;;30.40;61.30;;;;;;5051293;28;20036;-69
2021/08/12 10:58:18;;;;;;;16.17;6.10;;;30.50;61.60;;;;;;5033859;28;20033;-70
2021/08/12 11:00:51;;;;;;;10.07;5.60;;;30.40;61.30;;;;;;5040550;28;20159;-69
2021/08/12 11:03:46;;;;;;;6.65;5.47;;;30.20;60.90;;;;;;5052920;28;20398;-69
2021/08/12 11:06:19;;;;;;;7.35;5.10;;;30.10;61.50;;;;;;5047457;28;20095;-69
2021/08/12 11:08:54;;;;;;;7.45;5.88;;;30.00;62.30;;;;;;5033087;28;20033;-69
2021/08/12 11:11:25;;;;;;;7.45;5.20;;;30.00;62.30;;;;;;5051742;28;20063;-69
2021/08/12 11:13:57;;;;;;;7.88;5.80;;;30.20;62.00;;;;;;5051437;28;20033;-69
2021/08/12 11:16:24;;;;;;;9.70;5.20;;;30.30;62.00;;;;;;5037655;28;20116;-69
2021/08/12 11:18:53;;;;;;;6.03;5.43;;;30.30;62.10;;;;;;5033056;28;20397;-69
2021/08/12 11:21:33;;;;;;;9.90;5.28;;;30.30;62.20;;;;;;5034286;28;20030;-69
2021/08/12 11:23:59;;;;;;;6.32;5.13;;;30.30;61.70;;;;;;5033103;28;20502;-69
2021/08/12 11:26:26;;;;;;;6.75;4.72;;;30.40;61.70;;;;;;5032248;28;20057;-70
2021/08/12 11:28:56;;;;;;;6.75;5.30;;;30.50;61.50;;;;;;5033119;28;20026;-69
2021/08/12 11:31:23;;;;;;;6.05;5.10;;;30.60;61.60;;;;;;5039471;28;20395;-69
2021/08/12 11:33:54;;;;;;;6.03;5.38;;;30.50;61.60;;;;;;5033192;28;20022;-69
2021/08/12 11:36:29;;;;;;;8.27;6.00;;;30.50;62.00;;;;;;5034504;28;20037;-69
2021/08/12 11:39:08;;;;;;;8.30;5.57;;;30.50;61.90;;;;;;5038314;28;20037;-69
2021/08/12 11:41:39;;;;;;;8.43;5.78;;;30.40;61.50;;;;;;5066668;28;20073;-69
2021/08/12 11:44:16;;;;;;;10.45;5.57;;;30.40;61.80;;;;;;5043703;28;20090;-70
2021/08/12 11:46:43;;;;;;;6.80;5.40;;;30.60;61.60;;;;;;5032265;28;20025;-70
2021/08/12 11:49:14;;;;;;;7.78;5.53;;;30.60;60.90;;;;;;5032884;28;20025;-70
2021/08/12 11:51:40;;;;;;;5.30;4.80;;;30.70;61.00;;;;;;5031925;28;20707;-70
2021/08/12 11:54:08;;;;;;;9.85;6.38;;;30.80;60.80;;;;;;5032783;28;20112;-70
2021/08/12 11:56:35;;;;;;;9.88;5.55;;;30.90;61.20;;;;;;5035987;28;20046;-70
2021/08/12 11:59:01;;;;;;;7.07;5.85;;;31.10;61.20;;;;;;5037868;28;20079;-69
2021/08/12 12:01:32;;;;;;;6.50;5.78;;;31.30;59.10;;;;;;5032161;28;20382;-70
2021/08/12 12:04:02;;;;;;;7.90;6.57;;;31.60;58.70;;;;;;5033529;28;20036;-70
2021/08/12 12:06:35;;;;;;;8.18;5.57;;;31.70;57.30;;;;;;5031439;28;20399;-70
2021/08/12 12:09:31;;;;;;;8.05;5.88;;;31.70;58.20;;;;;;5033424;28;20061;-70
2021/08/12 12:12:03;;;;;;;7.60;5.65;;;31.90;57.50;;;;;;5031562;28;20025;-69
2021/08/12 12:14:35;;;;;;;6.20;5.13;;;32.10;57.60;;;;;;5035139;28;20078;-69
2021/08/12 12:17:21;;;;;;;6.35;5.68;;;32.30;57.10;;;;;;5036247;28;20494;-70
2021/08/12 12:20:26;;;;;;;10.35;6.45;;;32.50;56.60;;;;;;5032044;28;20062;-70
2021/08/12 12:23:03;;;;;;;6.97;5.90;;;32.40;55.90;;;;;;5018585;28;20038;-69
2021/08/12 12:25:30;;;;;;;11.68;5.93;;;32.40;56.10;;;;;;5015621;28;20502;-67
2021/08/12 12:27:58;;;;;;;6.07;5.57;;;32.40;56.20;;;;;;5020426;28;20052;-67
2021/08/12 12:40:10;;;;;;;7.43;5.50;;;32.60;54.90;;;;;;5220652;23;20511;-70
2021/08/12 12:42:37;;;;;;;7.57;5.68;;;32.50;54.90;;;;;;5030185;28;20029;-70
2021/08/12 12:45:13;;;;;;;7.00;5.57;;;32.50;54.90;;;;;;5031119;28;20026;-71
2021/08/12 12:47:39;;;;;;;10.07;5.40;;;32.40;54.10;;;;;;5030857;28;20038;-69
2021/08/12 12:50:11;;;;;;;9.25;5.72;;;32.40;54.00;;;;;;5030064;28;20025;-70
2021/08/12 12:52:52;;;;;;;11.25;6.30;;;32.40;53.50;;;;;;5023708;28;20030;-70
2021/08/12 12:55:20;;;;;;;9.00;6.15;;;32.50;54.10;;;;;;5022098;28;20494;-70
2021/08/12 12:57:46;;;;;;;9.60;6.18;;;32.60;52.60;;;;;;5013900;28;20543;-70